Time;durP1;ratioP1;P1;durP2;ratioP2;P2;SDS_P1;SDS_P2;PMS_P1;PMS_P2;Temp;Humidity;BMP_temperature;BMP_pressure;BME280_temperature;BME280_humidity;BME280_pressure;Samples;Min_cycle;Max_cycle;Signal;HPM_P1;HPM_P2
2023/07/23 00:00:35;;;;;;;;;4.00;4.00;;;;;;;;5015278;28;51363;-58
2023/07/23 00:03:01;;;;;;;;;3.00;3.00;;;;;;;;5014734;28;51749;-59
2023/07/23 00:05:26;;;;;;;;;3.00;2.33;;;;;;;;5015261;28;50954;-58
2023/07/23 00:07:55;;;;;;;;;3.33;3.00;;;;;;;;5015075;28;51130;-59
2023/07/23 00:10:20;;;;;;;;;4.67;4.00;;;;;;;;5015260;28;50988;-59
2023/07/23 00:12:46;;;;;;;;;3.00;3.00;;;;;;;;5014438;28;51042;-58
2023/07/23 00:15:12;;;;;;;;;4.67;3.67;;;;;;;;5015242;28;51242;-59
2023/07/23 00:17:39;;;;;;;;;4.00;4.00;;;;;;;;5015047;28;51010;-59
2023/07/23 00:20:04;;;;;;;;;3.67;3.00;;;;;;;;5012761;28;51986;-59
2023/07/23 00:22:29;;;;;;;;;3.67;3.67;;;;;;;;5011715;28;52575;-59
2023/07/23 00:24:56;;;;;;;;;4.00;4.00;;;;;;;;5014902;28;51083;-59
2023/07/23 00:27:22;;;;;;;;;5.00;4.00;;;;;;;;5014604;28;50971;-59
2023/07/23 00:29:47;;;;;;;;;3.33;3.33;;;;;;;;5013629;28;51153;-58
2023/07/23 00:32:12;;;;;;;;;3.00;3.00;;;;;;;;5014472;28;51144;-58
2023/07/23 00:34:38;;;;;;;;;2.33;2.33;;;;;;;;5014432;28;50854;-58
2023/07/23 00:37:03;;;;;;;;;2.00;2.00;;;;;;;;5014747;28;51008;-59
2023/07/23 00:39:28;;;;;;;;;15.00;15.00;;;;;;;;5013316;28;51064;-60
2023/07/23 00:41:54;;;;;;;;;4.00;3.33;;;;;;;;5014163;28;52784;-59
2023/07/23 00:44:19;;;;;;;;;13.75;13.75;;;;;;;;5014052;28;50932;-58
2023/07/23 00:46:44;;;;;;;;;4.33;4.33;;;;;;;;5014771;28;50810;-59
2023/07/23 00:49:10;;;;;;;;;3.00;2.00;;;;;;;;5014549;28;51292;-59
2023/07/23 00:51:35;;;;;;;;;3.00;2.67;;;;;;;;5014276;28;51789;-59
2023/07/23 00:54:01;;;;;;;;;3.33;3.33;;;;;;;;5014106;28;51043;-59
2023/07/23 00:56:27;;;;;;;;;3.33;2.67;;;;;;;;5014692;28;50955;-59
2023/07/23 00:58:52;;;;;;;;;3.00;3.00;;;;;;;;5014160;28;50947;-59
2023/07/23 01:01:18;;;;;;;;;3.00;2.00;;;;;;;;5013946;28;51945;-59
2023/07/23 01:03:43;;;;;;;;;3.00;3.00;;;;;;;;5012593;28;51175;-59
2023/07/23 01:06:10;;;;;;;;;1.00;1.00;;;;;;;;5014405;28;51383;-58
2023/07/23 01:08:35;;;;;;;;;3.00;3.00;;;;;;;;5014349;28;51141;-58
2023/07/23 01:11:01;;;;;;;;;2.00;2.00;;;;;;;;5013628;28;51062;-58
2023/07/23 01:13:27;;;;;;;;;3.00;2.00;;;;;;;;5013690;28;50822;-59
2023/07/23 01:15:52;;;;;;;;;2.00;2.00;;;;;;;;5013630;28;50986;-59
2023/07/23 01:18:18;;;;;;;;;3.67;3.67;;;;;;;;5014419;28;51107;-59
2023/07/23 01:20:43;;;;;;;;;3.00;3.00;;;;;;;;5013633;28;52260;-59
2023/07/23 01:23:08;;;;;;;;;3.00;3.00;;;;;;;;5013977;28;50869;-59
2023/07/23 01:25:33;;;;;;;;;2.67;2.67;;;;;;;;5013827;28;51020;-59
2023/07/23 01:27:58;;;;;;;;;3.00;3.00;;;;;;;;5013960;28;51059;-59
2023/07/23 01:30:24;;;;;;;;;3.00;2.33;;;;;;;;5013637;28;51898;-59
2023/07/23 01:32:50;;;;;;;;;3.00;3.00;;;;;;;;5013752;28;50929;-59
2023/07/23 01:35:16;;;;;;;;;2.33;2.33;;;;;;;;5013616;28;51268;-59
2023/07/23 01:37:43;;;;;;;;;3.00;3.00;;;;;;;;5012529;28;50963;-59
2023/07/23 01:40:08;;;;;;;;;3.33;3.00;;;;;;;;5013257;28;51914;-58
2023/07/23 01:42:34;;;;;;;;;5.00;3.00;;;;;;;;5013268;28;50951;-59
2023/07/23 01:45:05;;;;;;;;;2.00;2.00;;;;;;;;5013449;28;51078;-59
2023/07/23 01:47:31;;;;;;;;;3.00;3.00;;;;;;;;5013808;28;51302;-59
2023/07/23 01:49:56;;;;;;;;;5.00;3.33;;;;;;;;5013039;28;52046;-59
2023/07/23 01:52:21;;;;;;;;;2.33;2.33;;;;;;;;5013304;28;51113;-59
2023/07/23 01:54:46;;;;;;;;;1.00;1.00;;;;;;;;5013400;28;51074;-59
2023/07/23 01:57:11;;;;;;;;;2.00;2.00;;;;;;;;5013272;28;51407;-59
2023/07/23 01:59:37;;;;;;;;;4.67;4.00;;;;;;;;5012161;28;51890;-59
2023/07/23 02:02:04;;;;;;;;;3.67;3.33;;;;;;;;5013180;28;51031;-59
2023/07/23 02:04:29;;;;;;;;;2.00;2.00;;;;;;;;5013404;28;50932;-58
2023/07/23 02:06:55;;;;;;;;;3.00;3.00;;;;;;;;5012743;28;51060;-58
2023/07/23 02:09:20;;;;;;;;;3.67;3.00;;;;;;;;5011522;28;51876;-58
2023/07/23 02:11:48;;;;;;;;;3.00;3.00;;;;;;;;5013001;28;51055;-58
2023/07/23 02:14:13;;;;;;;;;3.33;3.00;;;;;;;;5007886;28;51014;-59
2023/07/23 02:16:39;;;;;;;;;1.00;1.00;;;;;;;;4992587;28;51012;-57
2023/07/23 02:19:04;;;;;;;;;3.00;3.00;;;;;;;;4991485;28;53874;-58
2023/07/23 02:21:29;;;;;;;;;3.33;2.33;;;;;;;;4997945;28;51327;-59
2023/07/23 02:23:54;;;;;;;;;3.00;3.00;;;;;;;;5011929;28;50986;-58
2023/07/23 02:26:19;;;;;;;;;2.33;2.33;;;;;;;;5012993;28;51135;-60
2023/07/23 02:28:45;;;;;;;;;4.00;2.67;;;;;;;;5010865;28;51134;-58
2023/07/23 02:31:10;;;;;;;;;3.00;3.00;;;;;;;;5011724;28;51144;-57
2023/07/23 02:33:35;;;;;;;;;4.67;4.33;;;;;;;;5012912;28;51085;-60
2023/07/23 02:36:01;;;;;;;;;2.67;2.67;;;;;;;;5013152;28;51205;-60
2023/07/23 02:38:26;;;;;;;;;3.67;3.00;;;;;;;;5012526;28;50949;-60
2023/07/23 02:40:58;;;;;;;;;2.00;2.00;;;;;;;;5012991;28;50924;-60
2023/07/23 02:43:23;;;;;;;;;3.00;3.00;;;;;;;;5012335;28;51114;-59
2023/07/23 02:45:49;;;;;;;;;2.00;2.00;;;;;;;;5012970;28;50861;-60
2023/07/23 02:48:14;;;;;;;;;4.00;3.67;;;;;;;;5012226;28;52459;-58
2023/07/23 02:50:39;;;;;;;;;2.00;2.00;;;;;;;;5012841;28;50987;-58
2023/07/23 02:53:05;;;;;;;;;3.67;3.00;;;;;;;;5012603;28;50931;-60
2023/07/23 02:55:30;;;;;;;;;3.00;3.00;;;;;;;;5012774;28;50911;-59
2023/07/23 02:57:56;;;;;;;;;2.67;2.67;;;;;;;;5012087;28;51121;-59
2023/07/23 03:00:21;;;;;;;;;2.33;2.33;;;;;;;;5011942;28;51144;-60
2023/07/23 03:02:47;;;;;;;;;2.00;2.00;;;;;;;;5012451;28;51403;-60
2023/07/23 03:05:13;;;;;;;;;4.00;4.00;;;;;;;;5012715;28;51246;-60
2023/07/23 03:07:38;;;;;;;;;3.33;2.33;;;;;;;;5010608;28;52741;-58
2023/07/23 03:10:03;;;;;;;;;4.00;4.00;;;;;;;;5010754;28;51208;-60
2023/07/23 03:12:29;;;;;;;;;4.33;4.33;;;;;;;;5011233;28;51309;-59
2023/07/23 03:14:54;;;;;;;;;2.00;2.00;;;;;;;;5012855;28;50983;-59
2023/07/23 03:17:19;;;;;;;;;2.67;2.67;;;;;;;;5011372;28;51135;-59
2023/07/23 03:19:44;;;;;;;;;4.00;4.00;;;;;;;;5012440;28;51105;-59
2023/07/23 03:22:09;;;;;;;;;2.00;2.00;;;;;;;;5012351;28;51046;-59
2023/07/23 03:24:34;;;;;;;;;3.00;3.00;;;;;;;;5012628;28;50980;-58
2023/07/23 03:27:00;;;;;;;;;3.00;3.00;;;;;;;;5012256;28;52134;-58
2023/07/23 03:29:25;;;;;;;;;2.00;2.00;;;;;;;;5015190;28;50971;-59
2023/07/23 03:31:50;;;;;;;;;4.67;3.00;;;;;;;;5015779;28;50980;-60
2023/07/23 03:34:15;;;;;;;;;4.67;4.00;;;;;;;;5015741;28;50963;-58
2023/07/23 03:36:42;;;;;;;;;5.00;4.00;;;;;;;;5015284;28;52067;-63
2023/07/23 03:39:07;;;;;;;;;3.00;3.00;;;;;;;;5015565;28;50877;-59
2023/07/23 03:41:32;;;;;;;;;3.00;3.00;;;;;;;;5015289;28;50834;-60
2023/07/23 03:43:58;;;;;;;;;3.67;3.67;;;;;;;;5014922;28;51692;-58
2023/07/23 03:46:23;;;;;;;;;2.33;1.67;;;;;;;;5015279;28;51898;-59
2023/07/23 03:48:48;;;;;;;;;3.00;3.00;;;;;;;;5015471;28;50953;-60
2023/07/23 03:51:15;;;;;;;;;3.67;3.67;;;;;;;;5014642;28;51071;-57
2023/07/23 03:53:40;;;;;;;;;3.33;3.33;;;;;;;;5014985;28;50861;-61
2023/07/23 03:56:06;;;;;;;;;4.00;4.00;;;;;;;;5014959;28;51818;-59
2023/07/23 03:58:31;;;;;;;;;2.67;2.67;;;;;;;;5015093;28;50923;-60
2023/07/23 04:00:56;;;;;;;;;5.33;4.33;;;;;;;;5013607;28;51106;-58
2023/07/23 04:03:21;;;;;;;;;4.00;3.00;;;;;;;;5015289;28;51085;-60
2023/07/23 04:05:46;;;;;;;;;4.00;4.00;;;;;;;;5012341;28;51271;-60
2023/07/23 04:08:12;;;;;;;;;4.00;4.00;;;;;;;;5015005;28;51093;-60
2023/07/23 04:10:37;;;;;;;;;3.00;3.00;;;;;;;;5015180;28;50964;-58
2023/07/23 04:13:03;;;;;;;;;4.00;4.00;;;;;;;;5014931;28;51074;-59
2023/07/23 04:15:30;;;;;;;;;3.00;3.00;;;;;;;;5014309;28;51981;-60
2023/07/23 04:17:55;;;;;;;;;4.33;3.33;;;;;;;;5014903;28;50889;-59
2023/07/23 04:20:20;;;;;;;;;4.00;4.00;;;;;;;;5015026;28;51195;-60
2023/07/23 04:22:45;;;;;;;;;5.33;4.67;;;;;;;;5011063;28;51257;-59
2023/07/23 04:25:11;;;;;;;;;2.00;2.00;;;;;;;;5014095;28;51595;-59
2023/07/23 04:27:36;;;;;;;;;4.33;4.33;;;;;;;;5013456;28;50947;-60
2023/07/23 04:30:01;;;;;;;;;5.33;5.33;;;;;;;;5013387;28;51308;-60
2023/07/23 04:32:27;;;;;;;;;3.00;3.00;;;;;;;;5012865;28;50983;-59
2023/07/23 04:34:52;;;;;;;;;6.00;5.00;;;;;;;;5012456;28;51506;-60
2023/07/23 04:37:17;;;;;;;;;3.33;3.00;;;;;;;;5014629;28;50866;-60
2023/07/23 04:39:42;;;;;;;;;4.67;4.00;;;;;;;;5014059;28;51166;-59
2023/07/23 04:42:07;;;;;;;;;4.00;4.00;;;;;;;;5014471;28;50950;-60
2023/07/23 04:44:33;;;;;;;;;2.00;2.00;;;;;;;;5013148;28;51121;-59
2023/07/23 04:46:58;;;;;;;;;4.67;4.00;;;;;;;;5013537;28;51045;-59
2023/07/23 04:49:23;;;;;;;;;3.00;3.00;;;;;;;;5014435;28;51214;-59
2023/07/23 04:51:48;;;;;;;;;5.00;4.00;;;;;;;;5014155;28;51020;-60
2023/07/23 04:54:13;;;;;;;;;4.00;4.00;;;;;;;;5012814;28;50924;-59
2023/07/23 04:56:38;;;;;;;;;4.67;4.67;;;;;;;;5013848;28;51102;-60
2023/07/23 04:59:04;;;;;;;;;3.67;3.67;;;;;;;;5012814;28;51074;-59
2023/07/23 05:01:29;;;;;;;;;4.00;4.00;;;;;;;;5011859;28;51325;-59
2023/07/23 05:03:54;;;;;;;;;3.33;3.00;;;;;;;;5012824;28;51999;-59
2023/07/23 05:06:19;;;;;;;;;3.00;3.00;;;;;;;;5012869;28;51236;-59
2023/07/23 05:08:44;;;;;;;;;2.00;2.00;;;;;;;;5012893;28;51375;-60
2023/07/23 05:11:10;;;;;;;;;3.33;3.33;;;;;;;;5012688;28;51411;-59
2023/07/23 05:13:35;;;;;;;;;3.00;3.00;;;;;;;;5013667;28;51784;-60
2023/07/23 05:16:02;;;;;;;;;3.00;3.00;;;;;;;;5012072;28;50986;-59
2023/07/23 05:18:27;;;;;;;;;3.00;2.33;;;;;;;;5014158;28;51103;-59
2023/07/23 05:20:53;;;;;;;;;6.67;5.00;;;;;;;;5012416;28;51299;-58
2023/07/23 05:23:18;;;;;;;;;4.00;2.33;;;;;;;;5013694;28;51752;-59
2023/07/23 05:25:43;;;;;;;;;3.33;3.00;;;;;;;;5012547;28;51026;-58
2023/07/23 05:28:09;;;;;;;;;4.00;4.00;;;;;;;;5013559;28;51093;-60
2023/07/23 05:30:34;;;;;;;;;4.67;4.33;;;;;;;;5012313;28;51358;-60
2023/07/23 05:32:59;;;;;;;;;3.33;3.33;;;;;;;;5013093;28;51084;-60
2023/07/23 05:35:24;;;;;;;;;3.33;3.33;;;;;;;;5013304;28;51205;-60
2023/07/23 05:37:49;;;;;;;;;4.00;4.00;;;;;;;;5012603;28;51237;-60
2023/07/23 05:40:17;;;;;;;;;5.00;4.00;;;;;;;;5013942;28;51309;-60
2023/07/23 05:42:42;;;;;;;;;3.00;3.00;;;;;;;;5012214;28;51010;-58
2023/07/23 05:45:07;;;;;;;;;4.00;4.00;;;;;;;;5010714;28;51063;-58
2023/07/23 05:47:33;;;;;;;;;4.00;3.67;;;;;;;;5013769;28;50930;-58
2023/07/23 05:49:58;;;;;;;;;5.00;4.00;;;;;;;;5013099;28;51364;-58
2023/07/23 05:52:24;;;;;;;;;4.00;4.00;;;;;;;;5011274;28;53869;-59
2023/07/23 05:54:49;;;;;;;;;4.33;4.33;;;;;;;;5013377;28;50913;-60
2023/07/23 05:57:14;;;;;;;;;3.00;3.00;;;;;;;;5012337;28;50964;-59
2023/07/23 05:59:39;;;;;;;;;4.33;4.33;;;;;;;;5013030;28;51100;-59
2023/07/23 06:02:05;;;;;;;;;4.00;3.67;;;;;;;;5010529;28;51686;-59
2023/07/23 06:04:30;;;;;;;;;3.00;3.00;;;;;;;;5010335;28;52167;-59
2023/07/23 06:06:55;;;;;;;;;5.00;4.00;;;;;;;;5006193;28;51122;-58
2023/07/23 06:09:21;;;;;;;;;3.67;3.33;;;;;;;;5010409;28;50985;-59
2023/07/23 06:11:46;;;;;;;;;3.00;3.00;;;;;;;;5011999;28;52758;-59
2023/07/23 06:14:11;;;;;;;;;4.00;4.00;;;;;;;;5011792;28;51083;-60
2023/07/23 06:16:37;;;;;;;;;4.00;4.00;;;;;;;;5013158;28;51035;-58
2023/07/23 06:19:02;;;;;;;;;4.00;4.00;;;;;;;;5013312;28;50897;-59
2023/07/23 06:21:27;;;;;;;;;3.00;3.00;;;;;;;;5013032;28;51659;-58
2023/07/23 06:23:52;;;;;;;;;5.67;4.00;;;;;;;;5012738;28;51173;-58
2023/07/23 06:26:18;;;;;;;;;4.33;3.00;;;;;;;;5012407;28;50953;-59
2023/07/23 06:28:43;;;;;;;;;2.00;2.00;;;;;;;;5012029;28;51148;-58
2023/07/23 06:31:08;;;;;;;;;3.33;3.00;;;;;;;;5012729;28;51250;-59
2023/07/23 06:33:33;;;;;;;;;4.00;3.67;;;;;;;;5012039;28;50975;-59
2023/07/23 06:35:59;;;;;;;;;4.00;3.33;;;;;;;;5012799;28;50906;-59
2023/07/23 06:38:25;;;;;;;;;4.67;4.00;;;;;;;;5013014;28;50971;-58
2023/07/23 06:40:51;;;;;;;;;3.33;2.33;;;;;;;;5012674;28;51010;-59
2023/07/23 06:43:16;;;;;;;;;3.67;3.00;;;;;;;;5012440;28;51268;-59
2023/07/23 06:45:45;;;;;;;;;3.00;3.00;;;;;;;;5012892;28;50915;-59
2023/07/23 06:48:11;;;;;;;;;4.00;3.00;;;;;;;;5012397;28;51335;-59
2023/07/23 06:50:37;;;;;;;;;4.00;4.00;;;;;;;;5012153;28;51930;-59
2023/07/23 06:53:02;;;;;;;;;4.00;4.00;;;;;;;;5011934;28;51098;-59
2023/07/23 06:55:27;;;;;;;;;4.00;3.00;;;;;;;;5011388;28;51353;-59
2023/07/23 06:57:52;;;;;;;;;4.33;4.33;;;;;;;;5011780;28;51302;-59
2023/07/23 07:00:17;;;;;;;;;3.67;3.67;;;;;;;;5010521;28;53652;-58
2023/07/23 07:02:43;;;;;;;;;3.67;3.67;;;;;;;;5014230;28;51061;-58
2023/07/23 07:05:09;;;;;;;;;4.00;4.00;;;;;;;;5016243;28;51275;-58
2023/07/23 07:07:35;;;;;;;;;3.00;3.00;;;;;;;;5013696;28;51163;-59
2023/07/23 07:10:01;;;;;;;;;3.33;3.00;;;;;;;;5014318;28;51521;-59
2023/07/23 07:12:26;;;;;;;;;4.00;4.00;;;;;;;;5014745;28;51328;-59
2023/07/23 07:14:51;;;;;;;;;3.00;3.00;;;;;;;;5013508;28;51149;-58
2023/07/23 07:17:16;;;;;;;;;4.00;3.67;;;;;;;;5015941;28;51132;-58
2023/07/23 07:19:41;;;;;;;;;4.00;3.67;;;;;;;;5015533;28;51085;-59
2023/07/23 07:22:06;;;;;;;;;3.00;3.00;;;;;;;;5015484;28;50977;-58
2023/07/23 07:24:32;;;;;;;;;6.67;3.67;;;;;;;;5015838;28;50954;-58
2023/07/23 07:26:57;;;;;;;;;3.00;3.00;;;;;;;;5013814;28;51286;-59
2023/07/23 07:29:22;;;;;;;;;5.00;4.33;;;;;;;;5015411;28;51857;-59
2023/07/23 07:31:48;;;;;;;;;6.00;5.67;;;;;;;;5015050;28;51118;-59
2023/07/23 07:34:13;;;;;;;;;3.00;3.00;;;;;;;;5015530;28;50868;-59
2023/07/23 07:36:38;;;;;;;;;3.33;3.33;;;;;;;;5015244;28;51198;-58
2023/07/23 07:39:04;;;;;;;;;5.67;4.67;;;;;;;;5014794;28;51769;-59
2023/07/23 07:41:29;;;;;;;;;4.00;4.00;;;;;;;;5014887;28;51082;-59
2023/07/23 07:43:55;;;;;;;;;5.67;5.00;;;;;;;;5013795;28;51161;-58
2023/07/23 07:46:20;;;;;;;;;5.00;3.00;;;;;;;;5015374;28;51898;-59
2023/07/23 07:48:46;;;;;;;;;3.00;3.00;;;;;;;;5014545;28;51638;-58
2023/07/23 07:51:11;;;;;;;;;3.33;3.33;;;;;;;;5014005;28;51126;-58
2023/07/23 07:53:37;;;;;;;;;4.33;3.33;;;;;;;;5013505;28;50979;-58
2023/07/23 07:56:03;;;;;;;;;5.00;4.33;;;;;;;;5015633;28;51069;-58
2023/07/23 07:58:28;;;;;;;;;4.33;3.33;;;;;;;;5013167;28;52682;-58
2023/07/23 08:00:54;;;;;;;;;4.00;4.00;;;;;;;;5014430;28;51227;-58
2023/07/23 08:03:22;;;;;;;;;4.00;4.00;;;;;;;;5014808;28;51178;-58
2023/07/23 08:05:47;;;;;;;;;4.33;4.33;;;;;;;;5015175;28;51002;-59
2023/07/23 08:08:13;;;;;;;;;5.67;5.33;;;;;;;;5013631;28;51148;-59
2023/07/23 08:10:39;;;;;;;;;3.33;3.33;;;;;;;;5013745;28;50960;-60
2023/07/23 08:13:05;;;;;;;;;3.67;3.67;;;;;;;;5011264;28;51055;-59
2023/07/23 08:15:31;;;;;;;;;4.67;4.67;;;;;;;;5014931;28;51028;-60
2023/07/23 08:17:56;;;;;;;;;4.00;3.67;;;;;;;;5012703;28;51286;-60
2023/07/23 08:20:22;;;;;;;;;3.67;3.00;;;;;;;;5013110;28;51391;-59
2023/07/23 08:22:47;;;;;;;;;3.67;3.00;;;;;;;;5014005;28;51485;-59
2023/07/23 08:25:13;;;;;;;;;4.67;4.67;;;;;;;;4995651;28;51455;-59
2023/07/23 08:27:38;;;;;;;;;4.00;4.00;;;;;;;;5012462;28;51756;-59
2023/07/23 08:30:05;;;;;;;;;3.67;3.67;;;;;;;;5014920;28;51031;-59
2023/07/23 08:32:30;;;;;;;;;3.00;3.00;;;;;;;;5014153;28;51027;-59
2023/07/23 08:34:57;;;;;;;;;1.00;1.00;;;;;;;;5014699;28;51140;-59
2023/07/23 08:37:22;;;;;;;;;3.33;3.00;;;;;;;;5013562;28;51067;-59
2023/07/23 08:39:47;;;;;;;;;4.00;4.00;;;;;;;;5012993;28;51082;-59
2023/07/23 08:42:21;;;;;;;;;5.00;4.00;;;;;;;;5013112;28;52108;-59
2023/07/23 08:44:52;;;;;;;;;4.00;4.00;;;;;;;;5013677;28;51128;-59
2023/07/23 08:47:20;;;;;;;;;4.33;3.00;;;;;;;;5013358;28;51113;-58
2023/07/23 08:49:47;;;;;;;;;4.67;4.00;;;;;;;;5014118;28;51090;-59
2023/07/23 08:52:13;;;;;;;;;3.67;3.67;;;;;;;;5014512;28;50900;-58
2023/07/23 08:54:41;;;;;;;;;3.67;3.67;;;;;;;;5014215;28;50860;-58
2023/07/23 08:57:07;;;;;;;;;3.67;3.00;;;;;;;;5013689;28;51060;-58
2023/07/23 08:59:33;;;;;;;;;4.33;4.33;;;;;;;;4995977;28;51181;-59
2023/07/23 09:02:00;;;;;;;;;3.00;3.00;;;;;;;;4991663;28;51283;-58
2023/07/23 09:04:25;;;;;;;;;1.67;1.00;;;;;;;;4992845;28;51234;-59
2023/07/23 09:06:51;;;;;;;;;3.67;3.00;;;;;;;;4992767;28;51165;-58
2023/07/23 09:09:16;;;;;;;;;3.00;3.00;;;;;;;;5004092;28;51222;-59
2023/07/23 09:11:41;;;;;;;;;4.00;4.00;;;;;;;;5012848;28;51181;-60
2023/07/23 09:14:11;;;;;;;;;4.67;4.00;;;;;;;;5013758;28;50996;-61
2023/07/23 09:16:38;;;;;;;;;3.33;3.33;;;;;;;;5006159;28;264699;-58
2023/07/23 09:19:03;;;;;;;;;3.00;3.00;;;;;;;;5012055;28;51384;-60
2023/07/23 09:21:28;;;;;;;;;3.33;3.00;;;;;;;;5011303;28;51032;-59
2023/07/23 09:23:55;;;;;;;;;5.00;5.00;;;;;;;;5012354;28;51225;-58
2023/07/23 09:26:26;;;;;;;;;3.33;3.00;;;;;;;;5010631;28;51996;-59
2023/07/23 09:28:52;;;;;;;;;4.00;4.00;;;;;;;;5012469;28;51048;-59
2023/07/23 09:31:26;;;;;;;;;4.00;4.00;;;;;;;;5012725;28;51094;-58
2023/07/23 09:33:55;;;;;;;;;3.00;2.33;;;;;;;;5011468;28;51272;-58
2023/07/23 09:36:22;;;;;;;;;4.33;4.33;;;;;;;;5011872;28;52393;-60
2023/07/23 09:38:57;;;;;;;;;5.00;4.33;;;;;;;;5011556;28;51015;-60
2023/07/23 09:41:22;;;;;;;;;3.00;3.00;;;;;;;;5013025;28;51725;-60
2023/07/23 09:43:48;;;;;;;;;3.67;3.67;;;;;;;;5013002;28;50895;-60
2023/07/23 09:46:13;;;;;;;;;7.00;4.00;;;;;;;;5011698;28;51780;-60
2023/07/23 09:48:45;;;;;;;;;3.33;3.33;;;;;;;;5013082;28;51169;-61
2023/07/23 09:51:10;;;;;;;;;4.00;4.00;;;;;;;;5012696;28;50941;-60
2023/07/23 09:53:39;;;;;;;;;3.00;3.00;;;;;;;;5012965;28;51023;-60
2023/07/23 09:56:04;;;;;;;;;4.67;4.67;;;;;;;;5011559;28;52618;-60
2023/07/23 09:58:31;;;;;;;;;3.00;3.00;;;;;;;;5011784;28;51157;-60
2023/07/23 10:00:57;;;;;;;;;3.00;3.00;;;;;;;;5010155;28;51085;-61
2023/07/23 10:03:23;;;;;;;;;2.67;2.00;;;;;;;;5012344;28;51541;-58
2023/07/23 10:05:49;;;;;;;;;3.33;3.33;;;;;;;;5012376;28;51992;-60
2023/07/23 10:08:18;;;;;;;;;4.33;4.33;;;;;;;;5012507;28;51031;-60
2023/07/23 10:10:48;;;;;;;;;4.00;3.00;;;;;;;;5011642;28;51218;-60
2023/07/23 10:13:13;;;;;;;;;2.33;2.00;;;;;;;;5007010;28;51287;-60
2023/07/23 10:15:39;;;;;;;;;4.00;4.00;;;;;;;;5007517;28;52548;-61
2023/07/23 10:18:06;;;;;;;;;4.67;4.67;;;;;;;;4993339;28;50960;-59
2023/07/23 10:20:32;;;;;;;;;4.00;4.00;;;;;;;;4992989;28;50909;-61
2023/07/23 10:22:57;;;;;;;;;3.33;3.00;;;;;;;;5000496;28;51201;-60
2023/07/23 10:25:30;;;;;;;;;5.00;5.00;;;;;;;;5011829;28;52028;-60
2023/07/23 10:27:57;;;;;;;;;4.67;4.67;;;;;;;;5011738;28;51034;-59
2023/07/23 10:30:23;;;;;;;;;4.33;4.00;;;;;;;;5010070;28;51047;-59
2023/07/23 10:33:08;;;;;;;;;4.33;3.33;;;;;;;;5012013;28;51239;-59
2023/07/23 10:35:48;;;;;;;;;4.00;4.00;;;;;;;;5010921;28;51857;-61
2023/07/23 10:38:30;;;;;;;;;4.00;4.00;;;;;;;;5010702;28;51111;-60
2023/07/23 10:40:55;;;;;;;;;4.67;4.00;;;;;;;;5010765;28;50975;-59
2023/07/23 10:43:21;;;;;;;;;5.33;5.33;;;;;;;;5011715;28;51118;-59
2023/07/23 10:45:51;;;;;;;;;4.33;4.33;;;;;;;;5011808;28;51790;-59
2023/07/23 10:48:17;;;;;;;;;3.33;3.00;;;;;;;;5011061;28;51260;-59
2023/07/23 10:50:59;;;;;;;;;5.00;5.00;;;;;;;;5010362;28;51103;-60
2023/07/23 10:53:24;;;;;;;;;4.00;3.67;;;;;;;;5011811;28;51071;-58
2023/07/23 10:55:51;;;;;;;;;7.00;6.00;;;;;;;;5010767;28;51918;-59
2023/07/23 10:58:20;;;;;;;;;4.00;4.00;;;;;;;;5009441;28;51414;-60
2023/07/23 11:00:52;;;;;;;;;5.00;5.00;;;;;;;;5012199;28;51135;-59
2023/07/23 11:03:18;;;;;;;;;4.00;4.00;;;;;;;;5009468;28;51197;-61
2023/07/23 11:05:44;;;;;;;;;6.67;6.33;;;;;;;;5010535;28;51963;-60
2023/07/23 11:08:17;;;;;;;;;5.00;5.00;;;;;;;;5009449;28;51064;-60
2023/07/23 11:10:46;;;;;;;;;6.00;6.00;;;;;;;;5011313;28;51158;-60
2023/07/23 11:13:12;;;;;;;;;5.00;5.00;;;;;;;;5009480;28;51357;-60
2023/07/23 11:15:37;;;;;;;;;5.00;4.33;;;;;;;;5010729;28;52680;-59
2023/07/23 11:18:03;;;;;;;;;5.33;5.00;;;;;;;;5009551;28;51360;-59
2023/07/23 11:20:28;;;;;;;;;4.00;4.00;;;;;;;;5011358;28;51046;-60
2023/07/23 11:22:57;;;;;;;;;4.67;4.00;;;;;;;;5011153;28;50999;-59
2023/07/23 11:25:23;;;;;;;;;7.00;5.67;;;;;;;;5010394;28;51051;-60
2023/07/23 11:27:48;;;;;;;;;5.67;5.67;;;;;;;;5009127;28;51341;-60
2023/07/23 11:30:14;;;;;;;;;5.00;3.33;;;;;;;;5009802;28;51256;-61
2023/07/23 11:32:39;;;;;;;;;4.00;4.00;;;;;;;;5011458;28;51185;-59
2023/07/23 11:35:05;;;;;;;;;3.00;3.00;;;;;;;;5010995;28;51811;-59
2023/07/23 11:37:31;;;;;;;;;4.00;4.00;;;;;;;;5009808;28;51446;-59
2023/07/23 11:39:56;;;;;;;;;4.33;4.33;;;;;;;;5009871;28;51046;-60
2023/07/23 11:42:21;;;;;;;;;3.67;2.67;;;;;;;;5009319;28;50948;-60
2023/07/23 11:44:59;;;;;;;;;3.00;3.00;;;;;;;;5010041;28;51833;-60
2023/07/23 11:47:25;;;;;;;;;5.33;5.00;;;;;;;;5010342;28;51055;-60
2023/07/23 11:49:50;;;;;;;;;7.33;6.00;;;;;;;;5012412;28;51146;-60
2023/07/23 11:52:21;;;;;;;;;4.67;4.67;;;;;;;;5014075;28;51350;-59
2023/07/23 11:54:46;;;;;;;;;6.00;6.00;;;;;;;;5007610;28;51247;-58
2023/07/23 11:57:12;;;;;;;;;4.33;4.00;;;;;;;;4993526;28;51193;-59
2023/07/23 11:59:39;;;;;;;;;5.00;5.00;;;;;;;;4993694;28;51144;-59
2023/07/23 12:02:04;;;;;;;;;4.00;4.00;;;;;;;;4976612;28;51170;-59
2023/07/23 12:04:36;;;;;;;;;4.67;3.67;;;;;;;;4993613;28;52197;-60
2023/07/23 12:07:01;;;;;;;;;6.00;5.67;;;;;;;;5004820;28;51010;-59
2023/07/23 12:09:26;;;;;;;;;4.33;4.00;;;;;;;;5012034;28;51149;-60
2023/07/23 12:11:51;;;;;;;;;5.33;4.67;;;;;;;;5012245;28;51317;-59
2023/07/23 12:14:17;;;;;;;;;5.33;5.33;;;;;;;;4992652;28;53822;-62
2023/07/23 12:16:43;;;;;;;;;9.33;7.33;;;;;;;;5012904;28;51204;-60
2023/07/23 12:19:11;;;;;;;;;6.00;5.00;;;;;;;;5012046;28;51149;-60
2023/07/23 12:21:38;;;;;;;;;4.67;4.33;;;;;;;;5013503;28;51023;-60
2023/07/23 12:24:23;;;;;;;;;5.67;5.67;;;;;;;;5012901;28;51058;-60
2023/07/23 12:26:49;;;;;;;;;5.00;5.00;;;;;;;;5012786;28;51005;-60
2023/07/23 12:29:15;;;;;;;;;5.00;5.00;;;;;;;;5013088;28;51003;-60
2023/07/23 12:31:41;;;;;;;;;5.67;5.33;;;;;;;;5013942;28;51035;-59
2023/07/23 12:34:07;;;;;;;;;7.00;7.00;;;;;;;;5012465;28;54974;-59
2023/07/23 12:36:32;;;;;;;;;5.00;5.00;;;;;;;;5013955;28;51341;-59
2023/07/23 12:38:58;;;;;;;;;6.00;5.00;;;;;;;;5014135;28;51074;-59
2023/07/23 12:41:23;;;;;;;;;7.00;7.00;;;;;;;;5014283;28;51135;-60
2023/07/23 12:43:48;;;;;;;;;6.00;6.00;;;;;;;;5012006;28;51780;-59
2023/07/23 12:46:14;;;;;;;;;7.00;6.67;;;;;;;;5013401;28;50975;-60
2023/07/23 12:48:39;;;;;;;;;6.00;6.00;;;;;;;;5013477;28;51414;-60
2023/07/23 12:51:04;;;;;;;;;8.00;7.00;;;;;;;;5012763;28;51073;-59
2023/07/23 12:53:29;;;;;;;;;7.00;6.00;;;;;;;;5013615;28;51032;-60
2023/07/23 12:55:54;;;;;;;;;8.00;7.00;;;;;;;;5013554;28;50984;-59
2023/07/23 12:58:20;;;;;;;;;7.00;6.00;;;;;;;;5013229;28;51256;-60
2023/07/23 13:00:45;;;;;;;;;5.00;5.00;;;;;;;;5013097;28;51225;-60
2023/07/23 13:03:10;;;;;;;;;5.33;4.00;;;;;;;;5012780;28;52074;-60
2023/07/23 13:05:35;;;;;;;;;5.00;5.00;;;;;;;;5013215;28;51074;-60
2023/07/23 13:08:00;;;;;;;;;6.00;5.00;;;;;;;;5012616;28;51232;-60
2023/07/23 13:10:26;;;;;;;;;5.33;4.33;;;;;;;;5010819;28;51440;-59
2023/07/23 13:12:51;;;;;;;;;3.00;3.00;;;;;;;;5012273;28;50992;-59
2023/07/23 13:15:16;;;;;;;;;5.00;4.00;;;;;;;;5013309;28;51035;-60
2023/07/23 13:17:43;;;;;;;;;3.67;3.67;;;;;;;;5012446;28;51206;-59
2023/07/23 13:20:08;;;;;;;;;5.00;5.00;;;;;;;;5012164;28;50937;-60
2023/07/23 13:22:34;;;;;;;;;3.00;3.00;;;;;;;;5012739;28;51514;-60
2023/07/23 13:24:59;;;;;;;;;5.33;4.67;;;;;;;;5012443;28;50913;-59
2023/07/23 13:27:24;;;;;;;;;4.33;4.00;;;;;;;;5012581;28;51102;-60
2023/07/23 13:29:49;;;;;;;;;6.00;6.00;;;;;;;;5011241;28;51072;-60
2023/07/23 13:32:15;;;;;;;;;5.00;5.00;;;;;;;;5011959;28;51907;-60
2023/07/23 13:34:40;;;;;;;;;7.00;7.00;;;;;;;;5012784;28;50847;-60
2023/07/23 13:37:05;;;;;;;;;5.67;5.00;;;;;;;;5012789;28;51527;-60
2023/07/23 13:39:30;;;;;;;;;5.00;4.33;;;;;;;;5011680;28;51036;-59
2023/07/23 13:41:55;;;;;;;;;5.33;3.33;;;;;;;;5011745;28;52105;-60
2023/07/23 13:44:21;;;;;;;;;5.00;5.00;;;;;;;;5011477;28;50964;-60
2023/07/23 13:46:46;;;;;;;;;5.00;5.00;;;;;;;;5011955;28;51173;-60
2023/07/23 13:49:12;;;;;;;;;4.00;4.00;;;;;;;;5012570;28;51174;-60
2023/07/23 13:51:37;;;;;;;;;3.00;3.00;;;;;;;;5013010;28;50862;-60
2023/07/23 13:54:02;;;;;;;;;6.00;5.67;;;;;;;;5010931;28;51185;-60
2023/07/23 13:56:27;;;;;;;;;4.67;4.67;;;;;;;;5011546;28;51303;-60
2023/07/23 13:58:53;;;;;;;;;7.00;5.00;;;;;;;;5012686;28;51241;-60
2023/07/23 14:01:18;;;;;;;;;5.00;4.00;;;;;;;;5012154;28;51048;-60
2023/07/23 14:03:43;;;;;;;;;4.67;4.00;;;;;;;;5012209;28;51081;-60
2023/07/23 14:06:08;;;;;;;;;6.00;6.00;;;;;;;;5012325;28;51212;-60
2023/07/23 14:08:33;;;;;;;;;6.33;6.00;;;;;;;;5012281;28;51383;-59
2023/07/23 14:10:59;;;;;;;;;6.00;6.00;;;;;;;;5007713;28;54183;-58
2023/07/23 14:13:24;;;;;;;;;6.00;5.00;;;;;;;;5010801;28;51068;-61
2023/07/23 14:15:49;;;;;;;;;4.67;4.00;;;;;;;;5008556;28;51478;-60
2023/07/23 14:18:14;;;;;;;;;3.00;3.00;;;;;;;;4999256;28;51244;-60
2023/07/23 14:20:40;;;;;;;;;9.00;8.67;;;;;;;;4992160;28;51161;-59
2023/07/23 14:23:05;;;;;;;;;5.33;5.33;;;;;;;;4992247;28;51217;-61
2023/07/23 14:25:30;;;;;;;;;5.00;5.00;;;;;;;;4990428;28;51158;-60
2023/07/23 14:27:55;;;;;;;;;4.67;4.33;;;;;;;;4990075;28;51724;-60
2023/07/23 14:30:20;;;;;;;;;3.00;3.00;;;;;;;;4991141;28;51989;-60
2023/07/23 14:32:46;;;;;;;;;3.00;3.00;;;;;;;;4992305;28;50964;-60
2023/07/23 14:35:11;;;;;;;;;4.67;4.00;;;;;;;;4992044;28;51193;-59